sensor_id;sensor_type;location;lat;lon;timestamp;temperature;humidity
6355;DHT22;3210;48.708;9.030;2022-11-04T00:40:51;9.70;99.90
6355;DHT22;3210;48.708;9.030;2022-11-04T00:49:42;9.70;99.90
6355;DHT22;3210;48.708;9.030;2022-11-04T01:01:07;9.70;99.90
6355;DHT22;3210;48.708;9.030;2022-11-04T01:04:29;9.70;99.90
6355;DHT22;3210;48.708;9.030;2022-11-04T01:07:59;9.60;99.90
6355;DHT22;3210;48.708;9.030;2022-11-04T01:14:06;9.70;99.90
6355;DHT22;3210;48.708;9.030;2022-11-04T01:17:07;9.70;99.90
6355;DHT22;3210;48.708;9.030;2022-11-04T01:20:03;9.70;99.90
6355;DHT22;3210;48.708;9.030;2022-11-04T01:26:31;9.50;99.90
6355;DHT22;3210;48.708;9.030;2022-11-04T01:39:12;9.40;99.90
6355;DHT22;3210;48.708;9.030;2022-11-04T01:48:28;9.50;99.90
6355;DHT22;3210;48.708;9.030;2022-11-04T02:05:05;9.40;99.90
6355;DHT22;3210;48.708;9.030;2022-11-04T02:11:34;9.30;1.00
6355;DHT22;3210;48.708;9.030;2022-11-04T02:14:56;9.20;1.00
6355;DHT22;3210;48.708;9.030;2022-11-04T02:25:11;9.10;1.00
6355;DHT22;3210;48.708;9.030;2022-11-04T02:31:36;9.00;1.00
6355;DHT22;3210;48.708;9.030;2022-11-04T02:48:39;8.90;1.00
6355;DHT22;3210;48.708;9.030;2022-11-04T02:51:50;8.80;1.00
6355;DHT22;3210;48.708;9.030;2022-11-04T02:56:39;8.80;1.00
6355;DHT22;3210;48.708;9.030;2022-11-04T02:59:52;8.80;1.00
6355;DHT22;3210;48.708;9.030;2022-11-04T03:03:39;8.80;1.00
6355;DHT22;3210;48.708;9.030;2022-11-04T03:06:24;8.70;1.00
6355;DHT22;3210;48.708;9.030;2022-11-04T03:09:12;8.70;1.00
6355;DHT22;3210;48.708;9.030;2022-11-04T03:11:52;8.80;1.00
6355;DHT22;3210;48.708;9.030;2022-11-04T03:14:51;8.70;1.00
6355;DHT22;3210;48.708;9.030;2022-11-04T03:17:43;8.70;1.00
6355;DHT22;3210;48.708;9.030;2022-11-04T03:20:17;8.70;1.00
6355;DHT22;3210;48.708;9.030;2022-11-04T03:22:49;8.60;1.00
6355;DHT22;3210;48.708;9.030;2022-11-04T03:25:22;8.50;1.00
6355;DHT22;3210;48.708;9.030;2022-11-04T03:27:57;8.50;1.00
6355;DHT22;3210;48.708;9.030;2022-11-04T03:30:34;8.50;1.00
6355;DHT22;3210;48.708;9.030;2022-11-04T03:33:11;8.60;1.00
6355;DHT22;3210;48.708;9.030;2022-11-04T03:35:43;8.50;1.00
6355;DHT22;3210;48.708;9.030;2022-11-04T03:38:12;8.50;1.00
6355;DHT22;3210;48.708;9.030;2022-11-04T03:40:40;8.40;1.00
6355;DHT22;3210;48.708;9.030;2022-11-04T03:43:11;8.40;1.00
6355;DHT22;3210;48.708;9.030;2022-11-04T03:45:41;8.30;1.00
6355;DHT22;3210;48.708;9.030;2022-11-04T03:48:09;8.30;1.00
6355;DHT22;3210;48.708;9.030;2022-11-04T03:50:40;8.30;1.00
6355;DHT22;3210;48.708;9.030;2022-11-04T03:53:08;8.30;1.00
6355;DHT22;3210;48.708;9.030;2022-11-04T03:55:47;8.30;1.00
6355;DHT22;3210;48.708;9.030;2022-11-04T03:58:26;8.20;1.00
6355;DHT22;3210;48.708;9.030;2022-11-04T04:01:02;8.30;1.00
6355;DHT22;3210;48.708;9.030;2022-11-04T04:03:34;8.20;1.00
6355;DHT22;3210;48.708;9.030;2022-11-04T04:06:09;8.20;1.00
6355;DHT22;3210;48.708;9.030;2022-11-04T04:08:41;8.30;1.00
6355;DHT22;3210;48.708;9.030;2022-11-04T04:11:16;8.20;1.00
6355;DHT22;3210;48.708;9.030;2022-11-04T04:13:50;8.20;1.00
6355;DHT22;3210;48.708;9.030;2022-11-04T04:16:23;8.20;1.00
6355;DHT22;3210;48.708;9.030;2022-11-04T04:18:55;8.10;1.00
6355;DHT22;3210;48.708;9.030;2022-11-04T04:21:27;8.10;1.00
6355;DHT22;3210;48.708;9.030;2022-11-04T04:23:57;8.10;1.00
6355;DHT22;3210;48.708;9.030;2022-11-04T04:26:46;8.20;7.60
6355;DHT22;3210;48.708;9.030;2022-11-04T04:29:31;8.10;1.00
6355;DHT22;3210;48.708;9.030;2022-11-04T04:31:59;8.10;47.80
6355;DHT22;3210;48.708;9.030;2022-11-04T04:34:30;8.00;92.40
6355;DHT22;3210;48.708;9.030;2022-11-04T04:37:01;8.00;99.90
6355;DHT22;3210;48.708;9.030;2022-11-04T04:39:33;8.00;99.90
6355;DHT22;3210;48.708;9.030;2022-11-04T04:42:20;8.00;99.90
6355;DHT22;3210;48.708;9.030;2022-11-04T04:45:06;8.10;83.20
6355;DHT22;3210;48.708;9.030;2022-11-04T04:47:42;8.00;55.10
6355;DHT22;3210;48.708;9.030;2022-11-04T04:50:12;8.00;83.70
6355;DHT22;3210;48.708;9.030;2022-11-04T04:52:41;8.00;83.10
6355;DHT22;3210;48.708;9.030;2022-11-04T04:55:09;7.90;99.90
6355;DHT22;3210;48.708;9.030;2022-11-04T04:57:38;7.70;99.90
6355;DHT22;3210;48.708;9.030;2022-11-04T05:00:08;7.40;1.00
6355;DHT22;3210;48.708;9.030;2022-11-04T05:02:35;7.40;1.00
6355;DHT22;3210;48.708;9.030;2022-11-04T05:05:02;7.50;14.70
6355;DHT22;3210;48.708;9.030;2022-11-04T05:07:30;7.50;99.90
6355;DHT22;3210;48.708;9.030;2022-11-04T05:09:57;7.40;11.20
6355;DHT22;3210;48.708;9.030;2022-11-04T05:12:24;7.10;99.90
6355;DHT22;3210;48.708;9.030;2022-11-04T05:15:16;7.20;99.90
6355;DHT22;3210;48.708;9.030;2022-11-04T05:17:43;7.10;1.00
6355;DHT22;3210;48.708;9.030;2022-11-04T05:20:11;7.10;1.00
6355;DHT22;3210;48.708;9.030;2022-11-04T05:22:38;7.20;99.90
6355;DHT22;3210;48.708;9.030;2022-11-04T05:25:06;7.20;99.90
6355;DHT22;3210;48.708;9.030;2022-11-04T05:27:33;7.20;99.90
6355;DHT22;3210;48.708;9.030;2022-11-04T05:30:00;7.10;1.00
6355;DHT22;3210;48.708;9.030;2022-11-04T05:32:30;7.00;99.90
6355;DHT22;3210;48.708;9.030;2022-11-04T05:34:57;7.10;99.90
6355;DHT22;3210;48.708;9.030;2022-11-04T05:37:24;7.00;1.00
6355;DHT22;3210;48.708;9.030;2022-11-04T05:39:51;6.80;99.90
6355;DHT22;3210;48.708;9.030;2022-11-04T05:42:19;6.90;99.90
6355;DHT22;3210;48.708;9.030;2022-11-04T05:44:46;6.80;99.90
6355;DHT22;3210;48.708;9.030;2022-11-04T05:47:12;6.80;99.90
6355;DHT22;3210;48.708;9.030;2022-11-04T05:49:41;6.80;1.00
6355;DHT22;3210;48.708;9.030;2022-11-04T05:52:08;6.70;1.00
6355;DHT22;3210;48.708;9.030;2022-11-04T05:54:36;6.60;1.00
6355;DHT22;3210;48.708;9.030;2022-11-04T05:57:04;6.70;1.00
6355;DHT22;3210;48.708;9.030;2022-11-04T05:59:30;6.70;1.00
6355;DHT22;3210;48.708;9.030;2022-11-04T06:01:57;6.80;99.90
6355;DHT22;3210;48.708;9.030;2022-11-04T06:04:24;6.80;84.10
6355;DHT22;3210;48.708;9.030;2022-11-04T06:06:53;6.70;3.60
6355;DHT22;3210;48.708;9.030;2022-11-04T06:09:21;6.70;99.90
6355;DHT22;3210;48.708;9.030;2022-11-04T06:12:05;6.90;99.90
6355;DHT22;3210;48.708;9.030;2022-11-04T06:14:32;6.70;99.90
6355;DHT22;3210;48.708;9.030;2022-11-04T06:17:00;6.60;1.00
6355;DHT22;3210;48.708;9.030;2022-11-04T06:19:27;6.50;99.90
6355;DHT22;3210;48.708;9.030;2022-11-04T06:21:56;6.30;99.90
6355;DHT22;3210;48.708;9.030;2022-11-04T06:24:22;6.30;1.00
6355;DHT22;3210;48.708;9.030;2022-11-04T06:26:50;6.40;1.00
6355;DHT22;3210;48.708;9.030;2022-11-04T06:29:17;6.30;1.00
6355;DHT22;3210;48.708;9.030;2022-11-04T06:31:44;6.50;1.00
6355;DHT22;3210;48.708;9.030;2022-11-04T06:34:11;6.40;99.90
6355;DHT22;3210;48.708;9.030;2022-11-04T06:36:38;6.30;99.90
6355;DHT22;3210;48.708;9.030;2022-11-04T06:39:07;6.30;99.90
6355;DHT22;3210;48.708;9.030;2022-11-04T06:41:34;6.50;99.90
6355;DHT22;3210;48.708;9.030;2022-11-04T06:44:01;6.50;99.90
6355;DHT22;3210;48.708;9.030;2022-11-04T06:46:33;6.60;99.90
6355;DHT22;3210;48.708;9.030;2022-11-04T06:49:01;6.60;1.00
6355;DHT22;3210;48.708;9.030;2022-11-04T06:51:28;6.50;1.00
6355;DHT22;3210;48.708;9.030;2022-11-04T06:53:55;6.50;99.90
6355;DHT22;3210;48.708;9.030;2022-11-04T06:56:24;6.50;1.00
6355;DHT22;3210;48.708;9.030;2022-11-04T06:58:52;6.50;1.00
6355;DHT22;3210;48.708;9.030;2022-11-04T07:01:22;6.60;1.00
6355;DHT22;3210;48.708;9.030;2022-11-04T07:03:50;6.70;99.90
6355;DHT22;3210;48.708;9.030;2022-11-04T07:06:18;6.70;99.90
6355;DHT22;3210;48.708;9.030;2022-11-04T07:08:45;6.80;30.90
6355;DHT22;3210;48.708;9.030;2022-11-04T07:11:13;6.80;99.90
6355;DHT22;3210;48.708;9.030;2022-11-04T07:13:42;6.90;99.90
6355;DHT22;3210;48.708;9.030;2022-11-04T07:16:10;7.00;99.90
6355;DHT22;3210;48.708;9.030;2022-11-04T07:18:38;7.00;99.90
6355;DHT22;3210;48.708;9.030;2022-11-04T07:21:05;7.00;1.00
6355;DHT22;3210;48.708;9.030;2022-11-04T07:23:33;6.90;99.90
6355;DHT22;3210;48.708;9.030;2022-11-04T07:26:02;7.00;99.90
6355;DHT22;3210;48.708;9.030;2022-11-04T07:28:29;7.00;1.00
6355;DHT22;3210;48.708;9.030;2022-11-04T07:30:59;7.10;1.00
6355;DHT22;3210;48.708;9.030;2022-11-04T07:33:26;7.10;1.00
6355;DHT22;3210;48.708;9.030;2022-11-04T07:35:53;7.20;1.00
6355;DHT22;3210;48.708;9.030;2022-11-04T07:38:21;7.40;99.90
6355;DHT22;3210;48.708;9.030;2022-11-04T07:40:48;7.50;88.60
6355;DHT22;3210;48.708;9.030;2022-11-04T07:43:15;7.50;1.00
6355;DHT22;3210;48.708;9.030;2022-11-04T07:45:42;7.60;99.90
6355;DHT22;3210;48.708;9.030;2022-11-04T07:48:10;7.70;99.90
6355;DHT22;3210;48.708;9.030;2022-11-04T07:50:38;7.80;99.90
6355;DHT22;3210;48.708;9.030;2022-11-04T07:53:05;7.90;95.20
6355;DHT22;3210;48.708;9.030;2022-11-04T07:55:32;7.90;1.00
6355;DHT22;3210;48.708;9.030;2022-11-04T07:57:59;8.00;1.00
6355;DHT22;3210;48.708;9.030;2022-11-04T08:00:27;8.00;1.00
6355;DHT22;3210;48.708;9.030;2022-11-04T08:02:54;8.00;1.00
6355;DHT22;3210;48.708;9.030;2022-11-04T08:05:22;8.10;99.90
6355;DHT22;3210;48.708;9.030;2022-11-04T08:07:49;8.20;99.90
6355;DHT22;3210;48.708;9.030;2022-11-04T08:10:17;8.30;99.90
6355;DHT22;3210;48.708;9.030;2022-11-04T08:12:44;8.50;1.30
6355;DHT22;3210;48.708;9.030;2022-11-04T08:15:11;8.50;10.20
6355;DHT22;3210;48.708;9.030;2022-11-04T08:17:38;8.60;1.00
6355;DHT22;3210;48.708;9.030;2022-11-04T08:20:05;8.60;1.00
6355;DHT22;3210;48.708;9.030;2022-11-04T08:22:36;8.70;1.00
6355;DHT22;3210;48.708;9.030;2022-11-04T08:25:04;8.70;1.00
6355;DHT22;3210;48.708;9.030;2022-11-04T08:27:33;8.80;1.00
6355;DHT22;3210;48.708;9.030;2022-11-04T08:30:00;8.70;1.00
6355;DHT22;3210;48.708;9.030;2022-11-04T08:32:28;8.80;1.00
6355;DHT22;3210;48.708;9.030;2022-11-04T08:34:54;8.90;1.00
6355;DHT22;3210;48.708;9.030;2022-11-04T08:37:21;8.90;1.00
6355;DHT22;3210;48.708;9.030;2022-11-04T08:39:50;9.00;1.00
6355;DHT22;3210;48.708;9.030;2022-11-04T08:42:17;9.10;1.00
6355;DHT22;3210;48.708;9.030;2022-11-04T08:44:45;9.20;1.00
6355;DHT22;3210;48.708;9.030;2022-11-04T08:47:12;9.20;1.00
6355;DHT22;3210;48.708;9.030;2022-11-04T08:49:39;9.20;1.00
6355;DHT22;3210;48.708;9.030;2022-11-04T08:52:07;9.20;1.00
6355;DHT22;3210;48.708;9.030;2022-11-04T08:54:35;9.40;1.00
6355;DHT22;3210;48.708;9.030;2022-11-04T08:57:03;9.40;1.00
6355;DHT22;3210;48.708;9.030;2022-11-04T08:59:31;9.50;99.90
6355;DHT22;3210;48.708;9.030;2022-11-04T09:01:57;9.50;99.90
6355;DHT22;3210;48.708;9.030;2022-11-04T09:04:24;9.60;99.90
6355;DHT22;3210;48.708;9.030;2022-11-04T09:06:51;9.60;99.90
6355;DHT22;3210;48.708;9.030;2022-11-04T09:09:20;9.70;99.90
6355;DHT22;3210;48.708;9.030;2022-11-04T09:11:48;9.70;99.90
6355;DHT22;3210;48.708;9.030;2022-11-04T09:14:16;9.70;99.90
6355;DHT22;3210;48.708;9.030;2022-11-04T09:16:43;9.70;99.90
6355;DHT22;3210;48.708;9.030;2022-11-04T09:19:10;9.90;99.90
6355;DHT22;3210;48.708;9.030;2022-11-04T09:21:37;9.90;99.90
6355;DHT22;3210;48.708;9.030;2022-11-04T09:24:05;9.90;99.90
6355;DHT22;3210;48.708;9.030;2022-11-04T09:26:32;9.90;99.90
6355;DHT22;3210;48.708;9.030;2022-11-04T09:29:00;9.90;99.90
6355;DHT22;3210;48.708;9.030;2022-11-04T09:31:29;9.90;99.90
6355;DHT22;3210;48.708;9.030;2022-11-04T09:33:56;9.90;99.90
6355;DHT22;3210;48.708;9.030;2022-11-04T09:36:23;9.80;99.90
6355;DHT22;3210;48.708;9.030;2022-11-04T09:38:51;9.80;99.90
6355;DHT22;3210;48.708;9.030;2022-11-04T09:41:36;9.80;99.90
6355;DHT22;3210;48.708;9.030;2022-11-04T09:44:14;9.90;99.90
6355;DHT22;3210;48.708;9.030;2022-11-04T09:46:46;10.00;99.90
6355;DHT22;3210;48.708;9.030;2022-11-04T09:49:15;10.10;99.90
6355;DHT22;3210;48.708;9.030;2022-11-04T09:51:43;10.10;99.90
6355;DHT22;3210;48.708;9.030;2022-11-04T09:54:17;10.10;99.90
6355;DHT22;3210;48.708;9.030;2022-11-04T09:56:48;10.20;99.90
6355;DHT22;3210;48.708;9.030;2022-11-04T09:59:20;10.30;99.90
6355;DHT22;3210;48.708;9.030;2022-11-04T10:02:01;10.50;99.90
6355;DHT22;3210;48.708;9.030;2022-11-04T10:04:39;10.60;99.90
6355;DHT22;3210;48.708;9.030;2022-11-04T10:07:20;10.50;99.90
6355;DHT22;3210;48.708;9.030;2022-11-04T10:10:00;10.50;99.90
6355;DHT22;3210;48.708;9.030;2022-11-04T10:12:42;10.60;99.90
6355;DHT22;3210;48.708;9.030;2022-11-04T10:15:29;10.70;99.90
6355;DHT22;3210;48.708;9.030;2022-11-04T10:18:18;10.80;99.90
6355;DHT22;3210;48.708;9.030;2022-11-04T10:20:58;10.80;99.90
6355;DHT22;3210;48.708;9.030;2022-11-04T10:23:33;10.90;99.90
6355;DHT22;3210;48.708;9.030;2022-11-04T10:26:11;10.90;99.90
6355;DHT22;3210;48.708;9.030;2022-11-04T10:28:45;11.00;99.90
6355;DHT22;3210;48.708;9.030;2022-11-04T10:31:18;11.10;99.90
6355;DHT22;3210;48.708;9.030;2022-11-04T10:33:50;11.00;99.90
6355;DHT22;3210;48.708;9.030;2022-11-04T10:36:18;11.00;99.90
6355;DHT22;3210;48.708;9.030;2022-11-04T10:38:50;11.00;99.90
6355;DHT22;3210;48.708;9.030;2022-11-04T10:41:29;11.00;99.90
6355;DHT22;3210;48.708;9.030;2022-11-04T10:44:03;11.10;99.90
6355;DHT22;3210;48.708;9.030;2022-11-04T10:46:44;11.10;99.90
6355;DHT22;3210;48.708;9.030;2022-11-04T10:52:20;11.20;99.90
6355;DHT22;3210;48.708;9.030;2022-11-04T10:54:48;11.30;99.90
6355;DHT22;3210;48.708;9.030;2022-11-04T10:57:17;11.30;99.90
6355;DHT22;3210;48.708;9.030;2022-11-04T10:59:50;11.40;99.90
6355;DHT22;3210;48.708;9.030;2022-11-04T11:02:18;11.40;99.90
6355;DHT22;3210;48.708;9.030;2022-11-04T11:04:45;11.30;99.90
6355;DHT22;3210;48.708;9.030;2022-11-04T11:07:14;11.30;99.90
6355;DHT22;3210;48.708;9.030;2022-11-04T11:09:52;11.20;99.90
6355;DHT22;3210;48.708;9.030;2022-11-04T11:12:23;11.30;99.90
6355;DHT22;3210;48.708;9.030;2022-11-04T11:14:55;11.30;99.90
6355;DHT22;3210;48.708;9.030;2022-11-04T11:17:24;11.30;99.90
6355;DHT22;3210;48.708;9.030;2022-11-04T11:19:56;11.30;99.90
6355;DHT22;3210;48.708;9.030;2022-11-04T11:22:34;11.40;99.90
6355;DHT22;3210;48.708;9.030;2022-11-04T11:25:24;11.40;99.90
6355;DHT22;3210;48.708;9.030;2022-11-04T11:27:54;11.60;99.90
6355;DHT22;3210;48.708;9.030;2022-11-04T11:30:24;11.60;99.90
6355;DHT22;3210;48.708;9.030;2022-11-04T11:32:58;11.70;99.90
6355;DHT22;3210;48.708;9.030;2022-11-04T11:35:30;11.70;99.90
6355;DHT22;3210;48.708;9.030;2022-11-04T11:37:59;11.60;99.90
6355;DHT22;3210;48.708;9.030;2022-11-04T11:40:33;11.50;99.90
6355;DHT22;3210;48.708;9.030;2022-11-04T11:43:03;11.60;99.90
6355;DHT22;3210;48.708;9.030;2022-11-04T11:45:31;11.70;99.90
6355;DHT22;3210;48.708;9.030;2022-11-04T11:47:59;11.80;99.90
6355;DHT22;3210;48.708;9.030;2022-11-04T11:50:27;11.70;99.90
6355;DHT22;3210;48.708;9.030;2022-11-04T11:53:15;11.80;99.90
6355;DHT22;3210;48.708;9.030;2022-11-04T11:55:47;11.80;99.90
6355;DHT22;3210;48.708;9.030;2022-11-04T11:58:22;11.70;99.90
6355;DHT22;3210;48.708;9.030;2022-11-04T12:00:55;11.60;99.90
6355;DHT22;3210;48.708;9.030;2022-11-04T12:03:29;11.70;99.90
6355;DHT22;3210;48.708;9.030;2022-11-04T12:06:27;11.70;99.90
6355;DHT22;3210;48.708;9.030;2022-11-04T12:09:13;11.70;99.90
6355;DHT22;3210;48.708;9.030;2022-11-04T12:11:52;11.70;99.90
6355;DHT22;3210;48.708;9.030;2022-11-04T12:14:31;11.70;99.90
6355;DHT22;3210;48.708;9.030;2022-11-04T12:17:08;11.60;99.90
6355;DHT22;3210;48.708;9.030;2022-11-04T12:19:51;11.70;99.90
6355;DHT22;3210;48.708;9.030;2022-11-04T12:22:26;11.70;99.90
6355;DHT22;3210;48.708;9.030;2022-11-04T12:25:04;11.80;99.90
6355;DHT22;3210;48.708;9.030;2022-11-04T12:27:42;11.90;99.90
6355;DHT22;3210;48.708;9.030;2022-11-04T12:30:13;11.90;99.90
6355;DHT22;3210;48.708;9.030;2022-11-04T12:32:59;12.00;99.90
6355;DHT22;3210;48.708;9.030;2022-11-04T12:35:41;12.10;99.90
6355;DHT22;3210;48.708;9.030;2022-11-04T12:38:26;12.00;99.90
6355;DHT22;3210;48.708;9.030;2022-11-04T12:41:02;12.10;99.90
6355;DHT22;3210;48.708;9.030;2022-11-04T12:43:39;12.00;99.90
6355;DHT22;3210;48.708;9.030;2022-11-04T12:46:18;12.10;99.90
6355;DHT22;3210;48.708;9.030;2022-11-04T12:48:57;12.20;99.90
6355;DHT22;3210;48.708;9.030;2022-11-04T12:51:36;12.00;99.90
6355;DHT22;3210;48.708;9.030;2022-11-04T12:54:24;12.10;99.90
6355;DHT22;3210;48.708;9.030;2022-11-04T12:57:05;12.00;99.90
6355;DHT22;3210;48.708;9.030;2022-11-04T12:59:49;12.00;99.90
6355;DHT22;3210;48.708;9.030;2022-11-04T13:02:21;12.00;99.90
6355;DHT22;3210;48.708;9.030;2022-11-04T13:04:58;12.10;99.90
6355;DHT22;3210;48.708;9.030;2022-11-04T13:07:30;12.20;99.90
6355;DHT22;3210;48.708;9.030;2022-11-04T13:10:03;12.20;99.90
6355;DHT22;3210;48.708;9.030;2022-11-04T13:12:35;12.20;99.90
6355;DHT22;3210;48.708;9.030;2022-11-04T13:15:14;12.30;99.90
6355;DHT22;3210;48.708;9.030;2022-11-04T13:17:44;12.20;96.40
6355;DHT22;3210;48.708;9.030;2022-11-04T13:20:23;12.00;85.10
6355;DHT22;3210;48.708;9.030;2022-11-04T13:22:53;11.40;84.50
6355;DHT22;3210;48.708;9.030;2022-11-04T13:25:29;11.20;87.90
6355;DHT22;3210;48.708;9.030;2022-11-04T13:27:57;10.70;94.50
6355;DHT22;3210;48.708;9.030;2022-11-04T13:30:33;10.30;99.90
6355;DHT22;3210;48.708;9.030;2022-11-04T13:33:07;9.80;99.90
6355;DHT22;3210;48.708;9.030;2022-11-04T13:35:45;9.20;99.90
6355;DHT22;3210;48.708;9.030;2022-11-04T13:38:18;9.10;99.90
6355;DHT22;3210;48.708;9.030;2022-11-04T13:40:56;9.10;99.90
6355;DHT22;3210;48.708;9.030;2022-11-04T13:43:26;9.10;99.90
6355;DHT22;3210;48.708;9.030;2022-11-04T13:46:24;8.80;99.90
6355;DHT22;3210;48.708;9.030;2022-11-04T13:49:02;8.70;99.90
6355;DHT22;3210;48.708;9.030;2022-11-04T13:51:35;8.60;99.90
6355;DHT22;3210;48.708;9.030;2022-11-04T13:54:04;8.60;99.90
6355;DHT22;3210;48.708;9.030;2022-11-04T13:56:35;8.80;99.90
6355;DHT22;3210;48.708;9.030;2022-11-04T13:59:14;8.80;99.90
6355;DHT22;3210;48.708;9.030;2022-11-04T14:01:46;8.90;99.90
6355;DHT22;3210;48.708;9.030;2022-11-04T14:04:28;8.90;99.90
6355;DHT22;3210;48.708;9.030;2022-11-04T14:06:59;9.00;99.90
6355;DHT22;3210;48.708;9.030;2022-11-04T14:12:29;9.00;99.90
6355;DHT22;3210;48.708;9.030;2022-11-04T14:15:24;9.00;99.90
6355;DHT22;3210;48.708;9.030;2022-11-04T14:21:12;8.70;99.90
6355;DHT22;3210;48.708;9.030;2022-11-04T14:23:46;8.50;1.00
6355;DHT22;3210;48.708;9.030;2022-11-04T14:26:25;8.40;1.00
6355;DHT22;3210;48.708;9.030;2022-11-04T14:29:24;8.40;4.30
6355;DHT22;3210;48.708;9.030;2022-11-04T14:32:05;8.20;99.90
6355;DHT22;3210;48.708;9.030;2022-11-04T14:34:58;8.10;99.90
6355;DHT22;3210;48.708;9.030;2022-11-04T14:37:35;8.00;99.90
6355;DHT22;3210;48.708;9.030;2022-11-04T14:40:14;8.10;99.90
6355;DHT22;3210;48.708;9.030;2022-11-04T14:42:55;8.00;99.90
6355;DHT22;3210;48.708;9.030;2022-11-04T14:45:41;8.00;99.90
6355;DHT22;3210;48.708;9.030;2022-11-04T14:48:23;8.10;99.90
6355;DHT22;3210;48.708;9.030;2022-11-04T14:51:04;8.20;1.00
6355;DHT22;3210;48.708;9.030;2022-11-04T14:53:41;8.40;99.90
6355;DHT22;3210;48.708;9.030;2022-11-04T14:56:23;8.30;99.90
6355;DHT22;3210;48.708;9.030;2022-11-04T14:59:16;8.50;99.90
6355;DHT22;3210;48.708;9.030;2022-11-04T15:02:03;8.70;99.90
6355;DHT22;3210;48.708;9.030;2022-11-04T15:04:52;8.70;99.90
6355;DHT22;3210;48.708;9.030;2022-11-04T15:07:39;8.70;1.00
6355;DHT22;3210;48.708;9.030;2022-11-04T15:10:26;8.70;1.00
6355;DHT22;3210;48.708;9.030;2022-11-04T15:13:06;8.80;1.00
6355;DHT22;3210;48.708;9.030;2022-11-04T15:16:02;8.80;1.00
6355;DHT22;3210;48.708;9.030;2022-11-04T15:18:36;8.80;1.00
6355;DHT22;3210;48.708;9.030;2022-11-04T15:21:08;8.80;1.00
6355;DHT22;3210;48.708;9.030;2022-11-04T15:23:50;8.60;1.00
6355;DHT22;3210;48.708;9.030;2022-11-04T15:26:31;8.50;99.90
6355;DHT22;3210;48.708;9.030;2022-11-04T15:29:01;8.60;99.90
6355;DHT22;3210;48.708;9.030;2022-11-04T15:31:35;8.70;99.90
6355;DHT22;3210;48.708;9.030;2022-11-04T15:34:18;8.60;99.90
6355;DHT22;3210;48.708;9.030;2022-11-04T15:36:47;8.60;99.90
6355;DHT22;3210;48.708;9.030;2022-11-04T15:39:19;8.50;99.90
6355;DHT22;3210;48.708;9.030;2022-11-04T15:41:53;8.50;1.00
6355;DHT22;3210;48.708;9.030;2022-11-04T15:44:38;8.50;1.00
6355;DHT22;3210;48.708;9.030;2022-11-04T15:47:25;8.30;1.00
6355;DHT22;3210;48.708;9.030;2022-11-04T15:50:01;8.20;59.70
6355;DHT22;3210;48.708;9.030;2022-11-04T15:52:29;8.20;1.00
6355;DHT22;3210;48.708;9.030;2022-11-04T15:54:58;8.30;87.40
6355;DHT22;3210;48.708;9.030;2022-11-04T15:57:31;8.20;99.90
6355;DHT22;3210;48.708;9.030;2022-11-04T16:00:02;8.00;99.90
6355;DHT22;3210;48.708;9.030;2022-11-04T16:02:32;7.90;99.90
6355;DHT22;3210;48.708;9.030;2022-11-04T16:05:02;7.80;1.00
6355;DHT22;3210;48.708;9.030;2022-11-04T16:07:34;7.80;1.00
6355;DHT22;3210;48.708;9.030;2022-11-04T16:12:46;7.70;99.90
6355;DHT22;3210;48.708;9.030;2022-11-04T16:15:29;7.80;1.00
6355;DHT22;3210;48.708;9.030;2022-11-04T16:17:56;7.90;99.90
6355;DHT22;3210;48.708;9.030;2022-11-04T16:20:24;7.90;1.00
6355;DHT22;3210;48.708;9.030;2022-11-04T16:22:55;7.90;1.00
6355;DHT22;3210;48.708;9.030;2022-11-04T16:25:24;7.90;1.00
6355;DHT22;3210;48.708;9.030;2022-11-04T16:27:56;7.80;1.00
6355;DHT22;3210;48.708;9.030;2022-11-04T16:30:23;7.90;99.90
6355;DHT22;3210;48.708;9.030;2022-11-04T16:32:52;7.90;99.90
6355;DHT22;3210;48.708;9.030;2022-11-04T16:35:21;7.80;99.90
6355;DHT22;3210;48.708;9.030;2022-11-04T16:37:49;7.70;1.00
6355;DHT22;3210;48.708;9.030;2022-11-04T16:40:17;7.60;1.00
6355;DHT22;3210;48.708;9.030;2022-11-04T16:42:46;7.60;99.90
6355;DHT22;3210;48.708;9.030;2022-11-04T16:45:23;7.60;1.00
6355;DHT22;3210;48.708;9.030;2022-11-04T16:47:52;7.60;1.00
6355;DHT22;3210;48.708;9.030;2022-11-04T16:50:19;7.60;1.00
6355;DHT22;3210;48.708;9.030;2022-11-04T16:52:49;7.60;1.00
6355;DHT22;3210;48.708;9.030;2022-11-04T16:55:16;7.60;26.30
6355;DHT22;3210;48.708;9.030;2022-11-04T16:57:44;7.50;1.00
6355;DHT22;3210;48.708;9.030;2022-11-04T17:00:17;7.60;99.90
6355;DHT22;3210;48.708;9.030;2022-11-04T17:02:47;7.60;1.00
6355;DHT22;3210;48.708;9.030;2022-11-04T17:05:15;7.60;99.90
6355;DHT22;3210;48.708;9.030;2022-11-04T17:07:42;7.50;1.00
6355;DHT22;3210;48.708;9.030;2022-11-04T17:10:14;7.60;99.90
6355;DHT22;3210;48.708;9.030;2022-11-04T17:12:41;7.60;99.90
6355;DHT22;3210;48.708;9.030;2022-11-04T17:15:10;7.80;99.90
6355;DHT22;3210;48.708;9.030;2022-11-04T17:17:38;7.90;99.90
6355;DHT22;3210;48.708;9.030;2022-11-04T17:20:09;8.00;99.90
6355;DHT22;3210;48.708;9.030;2022-11-04T17:22:37;8.20;99.90
6355;DHT22;3210;48.708;9.030;2022-11-04T17:25:05;8.30;1.00
6355;DHT22;3210;48.708;9.030;2022-11-04T17:27:38;8.40;1.00
6355;DHT22;3210;48.708;9.030;2022-11-04T17:30:07;8.70;99.90
6355;DHT22;3210;48.708;9.030;2022-11-04T17:32:34;8.70;99.90
6355;DHT22;3210;48.708;9.030;2022-11-04T17:35:01;8.60;1.00
6355;DHT22;3210;48.708;9.030;2022-11-04T17:37:30;8.30;99.90
6355;DHT22;3210;48.708;9.030;2022-11-04T17:39:57;8.30;1.00
6355;DHT22;3210;48.708;9.030;2022-11-04T17:42:24;8.20;1.00
6355;DHT22;3210;48.708;9.030;2022-11-04T17:45:09;8.10;1.00
6355;DHT22;3210;48.708;9.030;2022-11-04T17:47:36;8.20;1.00
6355;DHT22;3210;48.708;9.030;2022-11-04T17:50:04;8.10;1.00
6355;DHT22;3210;48.708;9.030;2022-11-04T17:52:52;8.10;68.20
6355;DHT22;3210;48.708;9.030;2022-11-04T17:55:19;8.10;1.00
6355;DHT22;3210;48.708;9.030;2022-11-04T17:57:46;8.20;99.90
6355;DHT22;3210;48.708;9.030;2022-11-04T18:00:14;8.20;1.00
6355;DHT22;3210;48.708;9.030;2022-11-04T18:02:41;8.20;1.00
6355;DHT22;3210;48.708;9.030;2022-11-04T18:05:08;8.20;99.90
6355;DHT22;3210;48.708;9.030;2022-11-04T18:07:36;8.20;1.00
6355;DHT22;3210;48.708;9.030;2022-11-04T18:10:08;8.20;99.90
6355;DHT22;3210;48.708;9.030;2022-11-04T18:12:35;8.20;1.00
6355;DHT22;3210;48.708;9.030;2022-11-04T18:15:02;8.30;69.90
6355;DHT22;3210;48.708;9.030;2022-11-04T18:17:29;8.30;99.90
6355;DHT22;3210;48.708;9.030;2022-11-04T18:19:56;8.30;1.00
6355;DHT22;3210;48.708;9.030;2022-11-04T18:22:23;8.40;1.00
6355;DHT22;3210;48.708;9.030;2022-11-04T18:24:50;8.30;99.90
6355;DHT22;3210;48.708;9.030;2022-11-04T18:27:19;8.20;1.00
6355;DHT22;3210;48.708;9.030;2022-11-04T18:29:46;8.30;9.30
6355;DHT22;3210;48.708;9.030;2022-11-04T18:32:13;8.30;1.00
6355;DHT22;3210;48.708;9.030;2022-11-04T18:34:40;8.30;1.00
6355;DHT22;3210;48.708;9.030;2022-11-04T18:37:07;8.20;1.00
6355;DHT22;3210;48.708;9.030;2022-11-04T18:39:34;8.10;1.00
6355;DHT22;3210;48.708;9.030;2022-11-04T18:42:02;8.20;98.40
6355;DHT22;3210;48.708;9.030;2022-11-04T18:44:31;8.10;99.90
6355;DHT22;3210;48.708;9.030;2022-11-04T18:46:58;8.10;69.40
6355;DHT22;3210;48.708;9.030;2022-11-04T18:49:24;8.10;99.90
6355;DHT22;3210;48.708;9.030;2022-11-04T18:51:51;8.20;99.90
6355;DHT22;3210;48.708;9.030;2022-11-04T18:54:18;8.20;1.00
6355;DHT22;3210;48.708;9.030;2022-11-04T18:56:45;8.20;99.90
6355;DHT22;3210;48.708;9.030;2022-11-04T18:59:16;8.30;99.90
6355;DHT22;3210;48.708;9.030;2022-11-04T19:01:44;8.10;99.90
6355;DHT22;3210;48.708;9.030;2022-11-04T19:04:11;8.10;99.90
6355;DHT22;3210;48.708;9.030;2022-11-04T19:06:40;8.00;1.00
6355;DHT22;3210;48.708;9.030;2022-11-04T19:09:09;8.20;99.90
6355;DHT22;3210;48.708;9.030;2022-11-04T19:11:38;8.30;99.90
6355;DHT22;3210;48.708;9.030;2022-11-04T19:14:07;8.40;99.90
6355;DHT22;3210;48.708;9.030;2022-11-04T19:16:35;8.40;1.00